createdAt,value
2023-01-12T00:01:12.060Z,47.65
2023-01-12T00:03:39.089Z,47.51
2023-01-12T00:06:06.207Z,47.36
2023-01-12T00:08:33.556Z,48.00
2023-01-12T00:11:02.187Z,47.54
2023-01-12T00:13:29.592Z,46.36
2023-01-12T00:15:57.693Z,46.83
2023-01-12T00:18:24.749Z,47.07
2023-01-12T00:20:51.875Z,47.29
2023-01-12T00:23:18.928Z,47.57
2023-01-12T00:25:51.038Z,48.05
2023-01-12T00:28:19.540Z,47.94
2023-01-12T00:30:46.582Z,48.13
2023-01-12T00:33:14.363Z,47.74
2023-01-12T00:35:41.459Z,48.01
2023-01-12T00:38:08.576Z,48.24
2023-01-12T00:40:36.861Z,48.78
2023-01-12T00:43:04.001Z,49.12
2023-01-12T00:45:32.642Z,48.47
2023-01-12T00:47:59.718Z,48.98
2023-01-12T00:50:26.835Z,49.39
2023-01-12T00:52:53.906Z,48.71
2023-01-12T00:55:20.918Z,49.60
2023-01-12T00:57:48.122Z,48.91
2023-01-12T01:00:16.621Z,48.64
2023-01-12T01:02:45.194Z,49.29
2023-01-12T01:05:12.318Z,48.50
2023-01-12T01:07:39.577Z,48.57
2023-01-12T01:10:07.947Z,49.10
2023-01-12T01:12:34.995Z,48.45
2023-01-12T01:15:02.642Z,48.22
2023-01-12T01:17:29.799Z,48.26
2023-01-12T01:19:58.375Z,48.80
2023-01-12T01:22:25.475Z,48.04
2023-01-12T01:24:52.617Z,48.55
2023-01-12T01:27:19.762Z,47.69
2023-01-12T01:29:46.876Z,48.38
2023-01-12T01:32:14.042Z,47.99
2023-01-12T01:34:41.315Z,47.91
2023-01-12T01:37:09.809Z,48.19
2023-01-12T01:39:36.848Z,47.61
2023-01-12T01:42:04.044Z,48.83
2023-01-12T01:44:52.690Z,48.65
2023-01-12T01:47:28.944Z,48.82
2023-01-12T01:50:00.320Z,48.15
2023-01-12T01:52:34.804Z,48.41
2023-01-12T01:55:07.225Z,48.53
2023-01-12T01:57:43.495Z,49.14
2023-01-12T02:00:13.269Z,49.29
2023-01-12T02:02:44.284Z,49.11
2023-01-12T02:05:13.784Z,48.73
2023-01-12T02:07:42.784Z,48.99
2023-01-12T02:10:11.070Z,49.03
2023-01-12T02:12:39.303Z,49.02
2023-01-12T02:15:07.907Z,48.85
2023-01-12T02:17:49.883Z,58.16
2023-01-12T02:20:40.244Z,48.59
2023-01-12T02:23:41.431Z,48.62
2023-01-12T02:26:42.991Z,49.01
2023-01-12T02:29:54.724Z,46.40
2023-01-12T02:32:32.728Z,47.84
2023-01-12T02:35:13.165Z,53.08
2023-01-12T02:37:51.769Z,47.64
2023-01-12T02:40:29.944Z,48.01
2023-01-12T02:43:09.764Z,50.69
2023-01-12T02:45:44.183Z,49.34
2023-01-12T02:48:22.329Z,50.78
2023-01-12T02:50:58.067Z,50.03
2023-01-12T02:53:33.601Z,47.73
2023-01-12T02:56:06.175Z,48.69
2023-01-12T02:58:40.781Z,47.12
2023-01-12T03:01:10.637Z,48.52
2023-01-12T03:03:39.918Z,45.74
2023-01-12T03:06:08.609Z,46.96
2023-01-12T03:08:39.386Z,47.13
2023-01-12T03:11:13.965Z,48.71
2023-01-12T03:13:46.264Z,48.38
2023-01-12T03:16:19.106Z,46.76
2023-01-12T03:18:55.255Z,47.62
2023-01-12T03:21:30.620Z,45.65
2023-01-12T03:24:04.658Z,46.12
2023-01-12T03:26:34.708Z,45.89
2023-01-12T03:29:09.545Z,48.15
2023-01-12T03:31:37.767Z,46.91
2023-01-12T03:34:06.409Z,47.34
2023-01-12T03:36:45.628Z,46.25
2023-01-12T03:39:23.065Z,44.58
2023-01-12T03:42:00.130Z,47.39
2023-01-12T03:44:38.728Z,44.17
2023-01-12T03:47:13.800Z,46.77
2023-01-12T03:49:49.511Z,45.20
2023-01-12T03:52:20.571Z,44.46
2023-01-12T03:54:51.747Z,47.54
2023-01-12T03:57:20.045Z,45.92
2023-01-12T03:59:47.329Z,45.04
2023-01-12T04:02:14.831Z,45.71
2023-01-12T04:04:43.433Z,44.50
2023-01-12T04:07:10.547Z,45.48
2023-01-12T04:09:37.591Z,45.49
2023-01-12T04:12:05.668Z,47.33
2023-01-12T04:14:32.928Z,45.94
2023-01-12T04:17:00.088Z,44.46
2023-01-12T04:19:27.229Z,46.22
2023-01-12T04:21:55.789Z,46.22
2023-01-12T04:24:23.190Z,44.21
2023-01-12T04:26:50.328Z,46.38
2023-01-12T04:29:17.412Z,45.93
2023-01-12T04:31:44.672Z,43.86
2023-01-12T04:34:11.728Z,45.36
2023-01-12T04:36:40.622Z,46.10
2023-01-12T04:39:10.851Z,45.84
2023-01-12T04:41:37.930Z,45.46
2023-01-12T04:44:05.033Z,45.17
2023-01-12T04:46:32.131Z,45.26
2023-01-12T04:48:59.272Z,46.43
2023-01-12T04:51:26.445Z,45.60
2023-01-12T04:53:53.629Z,45.95
2023-01-12T04:56:22.275Z,46.62
2023-01-12T04:58:49.447Z,45.69
2023-01-12T05:01:19.165Z,46.64
2023-01-12T05:03:46.600Z,45.99
2023-01-12T05:06:13.848Z,45.93
2023-01-12T05:08:41.008Z,45.35
2023-01-12T05:11:08.147Z,46.42
2023-01-12T05:13:36.729Z,45.92
2023-01-12T05:16:12.648Z,45.66
2023-01-12T05:18:39.956Z,46.45
2023-01-12T05:21:06.994Z,46.73
2023-01-12T05:23:34.294Z,47.17
2023-01-12T05:26:02.622Z,46.06
2023-01-12T05:28:30.428Z,46.33
2023-01-12T05:31:05.157Z,46.70
2023-01-12T05:33:33.231Z,46.19
2023-01-12T05:36:03.550Z,46.61
2023-01-12T05:38:30.927Z,45.86
2023-01-12T05:40:59.569Z,46.49
2023-01-12T05:43:26.806Z,45.65
2023-01-12T05:45:53.924Z,46.30
2023-01-12T05:48:22.732Z,46.06
2023-01-12T05:50:49.909Z,46.43
2023-01-12T05:53:17.008Z,46.55
2023-01-12T05:55:44.107Z,46.46
2023-01-12T05:58:11.206Z,45.92
2023-01-12T06:00:38.354Z,46.58
2023-01-12T06:03:05.508Z,45.32
2023-01-12T06:05:34.147Z,45.88
2023-01-12T06:08:01.417Z,44.55
2023-01-12T06:10:28.689Z,44.56
2023-01-12T06:12:55.794Z,44.85
2023-01-12T06:15:22.907Z,45.43
2023-01-12T06:17:50.067Z,45.39
2023-01-12T06:20:17.512Z,45.87
2023-01-12T06:22:46.270Z,44.78
2023-01-12T06:25:13.612Z,45.01
2023-01-12T06:27:40.792Z,46.39
2023-01-12T06:30:09.999Z,45.22
2023-01-12T06:32:37.210Z,45.82
2023-01-12T06:35:17.913Z,44.61
2023-01-12T06:37:47.722Z,44.36
2023-01-12T06:40:15.057Z,45.15
2023-01-12T06:42:42.346Z,45.38
2023-01-12T06:45:10.849Z,46.14
2023-01-12T06:47:44.879Z,45.89
2023-01-12T06:50:12.698Z,45.80
2023-01-12T06:52:39.910Z,44.26
2023-01-12T06:55:09.413Z,46.53
2023-01-12T06:57:36.637Z,44.62
2023-01-12T07:00:05.772Z,46.68
2023-01-12T07:02:33.029Z,44.96
2023-01-12T07:05:00.271Z,45.15
2023-01-12T07:07:27.447Z,45.62
2023-01-12T07:09:54.536Z,47.47
2023-01-12T07:12:23.527Z,45.91
2023-01-12T07:14:50.673Z,43.67
2023-01-12T07:17:17.878Z,44.33
2023-01-12T07:19:45.112Z,43.76
2023-01-12T07:22:12.291Z,43.39
2023-01-12T07:24:39.373Z,42.49
2023-01-12T07:27:06.650Z,41.92
2023-01-12T07:29:35.234Z,42.52
2023-01-12T07:32:02.333Z,41.62
2023-01-12T07:34:29.450Z,40.56
2023-01-12T07:36:56.695Z,41.65
2023-01-12T07:39:23.825Z,42.72
2023-01-12T07:41:51.174Z,43.84
2023-01-12T07:44:18.347Z,42.90
2023-01-12T07:46:46.997Z,44.12
2023-01-12T07:49:14.951Z,43.61
2023-01-12T07:51:42.232Z,44.30
2023-01-12T07:54:09.549Z,44.53
2023-01-12T07:56:36.632Z,44.59
2023-01-12T07:59:03.829Z,44.41
2023-01-12T08:01:31.153Z,43.74
2023-01-12T08:03:59.912Z,43.22
2023-01-12T08:06:27.101Z,43.36
2023-01-12T08:08:54.746Z,44.36
2023-01-12T08:11:22.531Z,44.76
2023-01-12T08:13:54.751Z,43.96
2023-01-12T08:16:29.829Z,42.46
2023-01-12T08:19:03.470Z,42.48
2023-01-12T08:21:37.953Z,41.78
2023-01-12T08:24:08.291Z,42.97
2023-01-12T08:26:40.871Z,43.07
2023-01-12T08:29:13.127Z,42.61
2023-01-12T08:31:41.499Z,41.95
2023-01-12T08:34:11.060Z,42.27
2023-01-12T08:36:44.144Z,43.38
2023-01-12T08:39:12.109Z,41.99
2023-01-12T08:41:39.313Z,42.49
2023-01-12T08:44:08.263Z,43.07
2023-01-12T08:46:37.197Z,41.17
2023-01-12T08:49:11.007Z,41.46
2023-01-12T08:51:38.748Z,40.26
2023-01-12T08:54:07.025Z,41.88
2023-01-12T08:56:35.007Z,40.86
2023-01-12T08:59:03.342Z,40.63
2023-01-12T09:01:31.544Z,39.81
2023-01-12T09:03:59.480Z,40.38
2023-01-12T09:06:31.869Z,39.32
2023-01-12T09:09:01.960Z,37.06
2023-01-12T09:11:30.687Z,38.50
2023-01-12T09:13:58.208Z,36.88
2023-01-12T09:16:27.546Z,37.38
2023-01-12T09:18:54.909Z,36.54
2023-01-12T09:21:24.552Z,36.18
2023-01-12T09:23:54.388Z,36.64
2023-01-12T09:26:24.421Z,36.36
2023-01-12T09:28:51.518Z,37.76
2023-01-12T09:31:21.318Z,35.44
2023-01-12T09:33:49.602Z,35.95
2023-01-12T09:36:18.950Z,35.98
2023-01-12T09:38:47.885Z,37.91
2023-01-12T09:41:19.793Z,37.96
2023-01-12T09:43:47.111Z,38.88
2023-01-12T09:46:22.829Z,40.98
2023-01-12T09:48:50.309Z,38.82
2023-01-12T09:51:29.008Z,40.73
2023-01-12T09:53:56.490Z,40.74
2023-01-12T09:56:36.618Z,41.19
2023-01-12T09:59:39.509Z,42.12
2023-01-12T10:02:12.585Z,41.96
2023-01-12T10:04:40.889Z,41.05
2023-01-12T10:07:14.632Z,41.21
2023-01-12T10:09:42.386Z,42.24
2023-01-12T10:12:23.110Z,41.73
2023-01-12T10:15:28.591Z,42.32
2023-01-12T10:18:04.228Z,40.46
2023-01-12T10:20:37.912Z,41.85
2023-01-12T10:23:12.627Z,41.38
2023-01-12T10:25:42.351Z,40.92
2023-01-12T10:28:17.169Z,41.26
2023-01-12T10:30:45.052Z,40.70
2023-01-12T10:33:15.682Z,40.32
2023-01-12T10:35:56.351Z,41.55
2023-01-12T10:38:28.089Z,40.47
2023-01-12T10:41:23.671Z,41.99
2023-01-12T10:46:43.657Z,41.72
2023-01-12T10:49:19.469Z,40.70
2023-01-12T10:51:55.175Z,41.58
2023-01-12T10:54:26.208Z,40.96
2023-01-12T10:57:01.936Z,39.03
2023-01-12T10:59:33.333Z,39.18
2023-01-12T11:02:19.636Z,39.72
2023-01-12T11:04:49.188Z,40.19
2023-01-12T11:07:18.712Z,40.74
2023-01-12T11:09:46.891Z,41.28
2023-01-12T11:12:29.602Z,41.10
2023-01-12T11:15:02.739Z,41.14
2023-01-12T11:18:08.252Z,40.83
2023-01-12T11:20:41.532Z,41.33
2023-01-12T11:23:14.865Z,41.17
2023-01-12T11:25:46.635Z,41.00
2023-01-12T11:28:22.851Z,40.74
2023-01-12T11:30:57.017Z,40.54
2023-01-12T11:33:32.271Z,39.91
2023-01-12T11:36:06.459Z,39.85
2023-01-12T11:38:38.631Z,40.51
2023-01-12T11:41:14.047Z,40.30
2023-01-12T11:43:54.080Z,40.30
2023-01-12T11:46:26.961Z,40.97
2023-01-12T11:49:13.041Z,40.89
2023-01-12T11:51:42.302Z,41.19
2023-01-12T11:54:16.710Z,40.94
2023-01-12T11:57:16.824Z,40.59
2023-01-12T11:59:59.400Z,40.52
2023-01-12T12:02:35.844Z,41.21
2023-01-12T12:05:21.569Z,40.52
2023-01-12T12:08:13.708Z,40.69
2023-01-12T12:10:51.523Z,40.80
2023-01-12T12:13:31.348Z,41.19
2023-01-12T12:16:23.753Z,41.01
2023-01-12T12:19:15.691Z,41.07
2023-01-12T12:21:50.931Z,42.01
2023-01-12T12:24:52.168Z,40.99
2023-01-12T12:27:38.892Z,41.35
2023-01-12T12:30:51.413Z,42.22
2023-01-12T12:33:29.209Z,41.48
2023-01-12T12:36:12.268Z,41.57
2023-01-12T12:39:18.414Z,41.47
2023-01-12T12:41:58.370Z,42.01
2023-01-12T12:44:41.908Z,41.57
2023-01-12T12:47:42.341Z,41.26
2023-01-12T12:50:16.956Z,41.58
2023-01-12T12:52:47.760Z,42.31
2023-01-12T12:55:17.480Z,41.76
2023-01-12T12:58:01.272Z,42.70
2023-01-12T13:00:32.950Z,42.74
2023-01-12T13:03:00.296Z,42.39
2023-01-12T13:05:42.307Z,42.86
2023-01-12T13:08:20.351Z,42.66
2023-01-12T13:10:57.745Z,46.21
2023-01-12T13:13:31.595Z,42.21
2023-01-12T13:16:43.068Z,45.74
2023-01-12T13:19:31.354Z,40.42
2023-01-12T13:22:17.036Z,41.43
2023-01-12T13:24:45.439Z,41.88
2023-01-12T13:27:45.907Z,41.46
2023-01-12T13:30:24.010Z,42.66
2023-01-12T13:32:58.171Z,42.73
2023-01-12T13:36:02.979Z,43.27
2023-01-12T13:38:51.765Z,43.07
2023-01-12T13:41:24.893Z,43.30
2023-01-12T13:43:57.275Z,43.59
2023-01-12T13:46:30.968Z,43.74
2023-01-12T13:48:58.648Z,43.46
2023-01-12T13:51:33.986Z,43.88
2023-01-12T13:54:04.313Z,43.71
2023-01-12T13:56:32.609Z,43.74
2023-01-12T13:59:02.079Z,43.64
2023-01-12T14:01:34.455Z,43.81
2023-01-12T14:04:31.813Z,43.54
2023-01-12T14:07:11.810Z,42.58
2023-01-12T14:09:51.491Z,42.84
2023-01-12T14:12:59.975Z,42.67
2023-01-12T14:15:33.991Z,43.83
2023-01-12T14:18:11.787Z,43.87
2023-01-12T14:20:45.722Z,44.02
2023-01-12T14:23:21.263Z,44.04
2023-01-12T14:26:12.427Z,43.84
2023-01-12T14:28:42.006Z,43.49
2023-01-12T14:31:21.575Z,42.54
2023-01-12T14:33:54.838Z,40.72
2023-01-12T14:36:28.015Z,40.58
2023-01-12T14:38:59.189Z,40.29
2023-01-12T14:41:30.207Z,40.90
2023-01-12T14:43:58.407Z,40.71
2023-01-12T14:46:30.317Z,40.65
2023-01-12T14:49:01.845Z,40.99
2023-01-12T14:51:31.546Z,41.83
2023-01-12T14:54:02.705Z,50.81
2023-01-12T14:56:38.281Z,39.13
2023-01-12T14:59:09.490Z,40.33
2023-01-12T15:01:38.922Z,40.35
2023-01-12T15:04:17.933Z,39.20
2023-01-12T15:06:46.290Z,39.50
2023-01-12T15:09:32.588Z,40.71
2023-01-12T15:12:20.726Z,39.97
2023-01-12T15:14:47.926Z,39.69
2023-01-12T15:17:15.517Z,40.65
2023-01-12T15:19:44.470Z,41.23
2023-01-12T15:22:11.910Z,40.96
2023-01-12T15:24:41.006Z,40.72
2023-01-12T15:27:12.755Z,40.12
2023-01-12T15:29:40.209Z,39.81
2023-01-12T15:32:17.626Z,40.31
2023-01-12T15:34:46.897Z,41.06
2023-01-12T15:37:15.787Z,41.25
2023-01-12T15:39:43.627Z,41.70
2023-01-12T15:42:13.766Z,41.32
2023-01-12T15:44:40.970Z,41.65
2023-01-12T15:47:11.338Z,41.10
2023-01-12T15:49:38.748Z,41.55
2023-01-12T15:52:13.355Z,41.47
2023-01-12T15:54:40.550Z,42.18
2023-01-12T15:57:11.851Z,41.66
2023-01-12T15:59:39.522Z,41.81
2023-01-12T16:02:24.674Z,41.04
2023-01-12T16:04:52.261Z,40.13
2023-01-12T16:07:21.070Z,41.10
2023-01-12T16:09:48.560Z,40.50
2023-01-12T16:12:16.046Z,39.80
2023-01-12T16:14:43.666Z,39.84
2023-01-12T16:17:11.094Z,39.87
2023-01-12T16:19:38.511Z,40.39
2023-01-12T16:22:05.950Z,41.79
2023-01-12T16:24:35.933Z,41.59
2023-01-12T16:27:04.026Z,42.69
2023-01-12T16:29:32.188Z,42.29
2023-01-12T16:31:59.420Z,42.75
2023-01-12T16:34:26.869Z,42.45
2023-01-12T16:36:54.247Z,43.61
2023-01-12T16:39:21.614Z,43.05
2023-01-12T16:41:50.966Z,42.88
2023-01-12T16:44:18.217Z,43.05
2023-01-12T16:46:45.450Z,43.57
2023-01-12T16:49:12.928Z,43.36
2023-01-12T16:51:40.230Z,42.74
2023-01-12T16:54:07.444Z,43.41
2023-01-12T16:56:34.693Z,43.38
2023-01-12T16:59:03.745Z,43.36
2023-01-12T17:01:31.121Z,43.16
2023-01-12T17:03:58.599Z,42.55
2023-01-12T17:06:28.612Z,42.56
2023-01-12T17:08:56.994Z,41.88
2023-01-12T17:11:24.475Z,42.09
2023-01-12T17:13:53.725Z,41.61
2023-01-12T17:16:24.794Z,41.44
2023-01-12T17:18:52.974Z,39.98
2023-01-12T17:21:21.760Z,41.29
2023-01-12T17:23:49.691Z,40.59
2023-01-12T17:26:18.830Z,40.67
2023-01-12T17:28:47.634Z,41.10
2023-01-12T17:31:17.688Z,40.34
2023-01-12T17:33:46.887Z,40.84
2023-01-12T17:36:14.639Z,41.27
2023-01-12T17:38:42.463Z,40.83
2023-01-12T17:41:11.135Z,40.10
2023-01-12T17:43:38.505Z,41.11
2023-01-12T17:46:06.094Z,40.94
2023-01-12T17:48:33.581Z,40.16
2023-01-12T17:51:05.704Z,40.64
2023-01-12T17:53:33.067Z,40.54
2023-01-12T17:56:02.471Z,40.67
2023-01-12T17:58:29.725Z,40.43
2023-01-12T18:00:57.112Z,40.91
2023-01-12T18:03:24.573Z,41.32
2023-01-12T18:06:02.831Z,41.33
2023-01-12T18:08:33.784Z,40.61
2023-01-12T18:11:02.431Z,41.56
2023-01-12T18:13:29.823Z,41.79
2023-01-12T18:15:57.224Z,41.61
2023-01-12T18:18:24.509Z,41.60
2023-01-12T18:20:51.768Z,42.03
2023-01-12T18:23:19.397Z,42.00
2023-01-12T18:25:48.749Z,42.15
2023-01-12T18:28:16.004Z,42.13
2023-01-12T18:30:43.478Z,41.95
2023-01-12T18:33:10.669Z,41.91
2023-01-12T18:35:38.240Z,42.13
2023-01-12T18:38:05.525Z,41.77
2023-01-12T18:40:33.604Z,41.79
2023-01-12T18:43:02.406Z,42.72
2023-01-12T18:45:29.558Z,41.84
2023-01-12T18:47:56.902Z,42.07
2023-01-12T18:50:24.148Z,41.76
2023-01-12T18:52:51.387Z,42.41
2023-01-12T18:55:18.485Z,41.86
2023-01-12T18:57:45.784Z,42.65
2023-01-12T19:00:16.668Z,42.81
2023-01-12T19:02:44.280Z,43.02
2023-01-12T19:05:13.071Z,42.62
2023-01-12T19:07:40.418Z,43.61
2023-01-12T19:10:09.197Z,43.42
2023-01-12T19:12:36.588Z,42.83
2023-01-12T19:15:04.087Z,42.72
2023-01-12T19:17:33.373Z,42.96
2023-01-12T19:20:03.419Z,42.48
2023-01-12T19:22:30.895Z,42.93
2023-01-12T19:24:58.249Z,43.60
2023-01-12T19:27:25.870Z,43.12
2023-01-12T19:29:53.267Z,43.41
2023-01-12T19:32:20.767Z,43.58
2023-01-12T19:34:50.584Z,43.57
2023-01-12T19:37:21.429Z,42.92
2023-01-12T19:39:59.631Z,43.13
2023-01-12T19:42:28.531Z,43.82
2023-01-12T19:44:56.288Z,43.21
2023-01-12T19:47:23.668Z,43.76
2023-01-12T19:49:52.468Z,44.00
2023-01-12T19:52:20.331Z,43.74
2023-01-12T19:54:47.470Z,43.64
2023-01-12T19:57:14.871Z,44.35
2023-01-12T19:59:42.131Z,44.53
2023-01-12T20:02:12.550Z,44.02
2023-01-12T20:04:40.488Z,44.54
2023-01-12T20:07:09.248Z,44.56
2023-01-12T20:09:36.567Z,44.51
2023-01-12T20:12:04.589Z,44.15
2023-01-12T20:14:32.570Z,44.83
2023-01-12T20:16:59.888Z,44.41
2023-01-12T20:19:28.086Z,44.67
2023-01-12T20:21:55.517Z,44.75
2023-01-12T20:24:24.770Z,44.51
2023-01-12T20:26:52.288Z,44.56
2023-01-12T20:29:20.210Z,44.27
2023-01-12T20:31:47.906Z,44.17
2023-01-12T20:34:15.208Z,43.96
2023-01-12T20:36:42.426Z,43.41
2023-01-12T20:39:10.149Z,43.93
2023-01-12T20:41:38.990Z,43.76
2023-01-12T20:44:07.206Z,43.83
2023-01-12T20:46:35.257Z,43.22
2023-01-12T20:49:03.048Z,42.51
2023-01-12T20:51:30.491Z,43.00
2023-01-12T20:53:59.973Z,43.35
2023-01-12T20:56:28.473Z,43.16
2023-01-12T20:58:57.427Z,43.71
2023-01-12T21:01:24.962Z,43.59
2023-01-12T21:03:52.229Z,43.87
2023-01-12T21:06:19.878Z,43.86
2023-01-12T21:08:48.076Z,48.66
2023-01-12T21:11:18.110Z,49.76
2023-01-12T21:13:46.010Z,42.34
2023-01-12T21:16:17.844Z,39.60
2023-01-12T21:18:46.165Z,35.47
2023-01-12T21:21:13.599Z,36.99
2023-01-12T21:23:41.007Z,38.36
2023-01-12T21:26:09.651Z,39.16
2023-01-12T21:28:38.230Z,39.94
2023-01-12T21:31:07.710Z,40.88
2023-01-12T21:33:37.071Z,41.70
2023-01-12T21:36:05.912Z,42.12
2023-01-12T21:38:33.829Z,42.36
2023-01-12T21:41:04.487Z,43.12
2023-01-12T21:43:33.668Z,43.47
2023-01-12T21:46:06.081Z,43.92
2023-01-12T21:48:33.527Z,43.98
2023-01-12T21:51:09.006Z,44.30
2023-01-12T21:53:36.748Z,44.19
2023-01-12T21:56:06.715Z,43.83
2023-01-12T21:58:36.140Z,44.44
2023-01-12T22:01:08.202Z,44.29
2023-01-12T22:03:35.590Z,44.62
2023-01-12T22:06:07.478Z,44.47
2023-01-12T22:08:36.247Z,44.03
2023-01-12T22:11:07.808Z,44.10
2023-01-12T22:13:37.501Z,44.21
2023-01-12T22:16:06.752Z,44.14
2023-01-12T22:18:34.129Z,43.56
2023-01-12T22:21:02.490Z,43.61
2023-01-12T22:23:31.633Z,42.99
2023-01-12T22:26:01.891Z,42.74
2023-01-12T22:28:29.185Z,42.67
2023-01-12T22:30:56.247Z,42.87
2023-01-12T22:33:23.628Z,43.05
2023-01-12T22:35:50.985Z,42.59
2023-01-12T22:38:18.261Z,42.57
2023-01-12T22:40:47.230Z,43.16
2023-01-12T22:43:14.470Z,44.27
2023-01-12T22:45:42.216Z,43.64
2023-01-12T22:48:09.548Z,43.98
2023-01-12T22:50:37.013Z,43.97
2023-01-12T22:53:04.827Z,44.24
2023-01-12T22:55:32.400Z,44.67
2023-01-12T22:58:01.248Z,45.39
2023-01-12T23:00:28.733Z,45.40
2023-01-12T23:02:56.430Z,45.12
2023-01-12T23:05:23.776Z,44.86
2023-01-12T23:07:51.412Z,45.21
2023-01-12T23:10:19.292Z,45.58
2023-01-12T23:12:46.636Z,45.26
2023-01-12T23:15:15.641Z,45.63
2023-01-12T23:17:42.793Z,45.75
2023-01-12T23:20:11.555Z,45.01
2023-01-12T23:22:38.732Z,45.19
2023-01-12T23:25:06.978Z,45.09
2023-01-12T23:27:34.211Z,44.97
2023-01-12T23:30:01.448Z,44.76
2023-01-12T23:32:30.261Z,44.66
2023-01-12T23:34:57.533Z,44.54
2023-01-12T23:37:24.892Z,44.13
2023-01-12T23:39:52.193Z,43.83
2023-01-12T23:42:19.391Z,43.97
2023-01-12T23:44:47.115Z,43.75
2023-01-12T23:47:14.411Z,43.98
2023-01-12T23:49:43.251Z,43.59
2023-01-12T23:52:11.062Z,42.71
2023-01-12T23:54:38.368Z,43.03
2023-01-12T23:57:05.651Z,42.75
2023-01-12T23:59:32.997Z,42.89
